Time;durP1;ratioP1;P1;durP2;ratioP2;P2;SDS_P1;SDS_P2;PMS_P1;PMS_P2;Temp;Humidity;BMP_temperature;BMP_pressure;BME280_temperature;BME280_humidity;BME280_pressure;Samples;Min_cycle;Max_cycle;Signal;HPM_P1;HPM_P2
2023/12/21 00:00:38;;;;;;;2.22;1.88;;;;;;;0.20;100.00;94056.91;5011397;28;20217;-74
2023/12/21 00:03:05;;;;;;;3.00;2.58;;;;;;;0.38;100.00;94061.56;4992644;28;20209;-74
2023/12/21 00:05:32;;;;;;;2.45;1.48;;;;;;;0.55;100.00;94051.28;4991511;28;20261;-74
2023/12/21 00:07:59;;;;;;;0.93;0.93;;;;;;;0.55;100.00;94045.16;4991023;28;20241;-73
2023/12/21 00:10:26;;;;;;;0.75;0.65;;;;;;;0.50;100.00;94051.34;4990956;28;20249;-74
2023/12/21 00:12:52;;;;;;;1.27;1.20;;;;;;;0.61;100.00;94050.19;4991355;28;20214;-75
2023/12/21 00:15:19;;;;;;;0.75;0.75;;;;;;;0.61;100.00;94049.41;5000085;28;20224;-75
2023/12/21 00:17:47;;;;;;;2.40;2.03;;;;;;;0.78;100.00;94057.78;4995332;28;20240;-73
2023/12/21 00:20:16;;;;;;;0.55;0.55;;;;;;;0.53;100.00;94050.81;4991475;28;20627;-74
2023/12/21 00:22:43;;;;;;;1.30;1.30;;;;;;;0.60;100.00;94064.59;5007936;28;20621;-74
2023/12/21 00:25:10;;;;;;;1.60;0.82;;;;;;;0.37;100.00;94059.97;4994429;28;20216;-75
2023/12/21 00:27:36;;;;;;;1.60;1.50;;;;;;;0.33;100.00;94064.28;4994642;28;20217;-75
2023/12/21 00:30:04;;;;;;;7.38;5.15;;;;;;;0.37;100.00;94065.31;4994593;28;20233;-75
2023/12/21 00:32:30;;;;;;;1.00;1.00;;;;;;;0.60;100.00;94061.94;4997843;28;20209;-75
2023/12/21 00:34:59;;;;;;;2.15;1.90;;;;;;;0.73;100.00;94067.69;5013716;28;20217;-74
2023/12/21 00:37:26;;;;;;;2.60;2.38;;;;;;;0.27;100.00;94070.72;5013954;28;20545;-72
2023/12/21 00:39:52;;;;;;;0.93;0.93;;;;;;;0.17;100.00;94074.22;5013897;28;20289;-73
2023/12/21 00:42:19;;;;;;;0.77;0.77;;;;;;;0.18;100.00;94088.34;5013490;28;20300;-73
2023/12/21 00:44:46;;;;;;;1.70;1.60;;;;;;;0.24;100.00;94088.03;5013040;28;20238;-73
2023/12/21 00:47:13;;;;;;;1.90;1.73;;;;;;;0.29;100.00;94089.84;4995595;28;20214;-71
2023/12/21 00:49:40;;;;;;;2.15;1.95;;;;;;;0.46;100.00;94100.94;4994087;28;20229;-73
2023/12/21 00:52:08;;;;;;;5.43;2.42;;;;;;;0.52;100.00;94099.84;4993563;28;20566;-72
2023/12/21 00:54:35;;;;;;;0.93;0.80;;;;;;;0.70;100.00;94107.13;5005810;28;20587;-72
2023/12/21 00:57:01;;;;;;;2.70;2.50;;;;;;;0.70;100.00;94104.47;5013632;28;20658;-73
2023/12/21 00:59:28;;;;;;;17.25;7.20;;;;;;;0.82;100.00;94093.44;5013130;28;20220;-73
2023/12/21 01:01:55;;;;;;;21.05;9.60;;;;;;;0.47;100.00;94096.41;5004670;28;20210;-73
2023/12/21 01:04:22;;;;;;;18.75;9.07;;;;;;;0.63;100.00;94093.34;4993664;28;20630;-71
2023/12/21 01:06:49;;;;;;;16.80;8.48;;;;;;;0.51;100.00;94087.59;4993447;28;20332;-74
2023/12/21 01:09:17;;;;;;;22.55;9.27;;;;;;;0.51;100.00;94090.25;4993176;28;20242;-72
2023/12/21 01:11:44;;;;;;;18.02;9.93;;;;;;;0.46;100.00;94100.94;4993722;28;20236;-72
2023/12/21 01:14:10;;;;;;;18.90;9.73;;;;;;;0.55;100.00;94099.25;5004727;28;20204;-71
2023/12/21 01:16:37;;;;;;;19.88;8.82;;;;;;;0.39;100.00;94095.13;4999567;28;20220;-73
2023/12/21 01:19:04;;;;;;;1.02;1.00;;;;;;;0.50;100.00;94093.97;5013031;28;20209;-73
2023/12/21 01:21:31;;;;;;;0.95;0.95;;;;;;;0.59;100.00;94094.19;5006721;28;20214;-73
2023/12/21 01:23:58;;;;;;;6.88;2.50;;;;;;;0.60;100.00;94091.25;4993462;28;20214;-72
2023/12/21 01:26:27;;;;;;;2.03;1.55;;;;;;;0.67;100.00;94091.72;4993555;28;20210;-72
2023/12/21 01:28:54;;;;;;;1.08;1.08;;;;;;;0.87;100.00;94095.28;4992942;28;20209;-73
2023/12/21 01:31:21;;;;;;;2.28;2.10;;;;;;;0.89;100.00;94087.81;4992798;28;20590;-73
2023/12/21 01:33:48;;;;;;;0.73;0.47;;;;;;;0.77;100.00;94079.38;4993203;28;20225;-73
2023/12/21 01:36:15;;;;;;;0.45;0.45;;;;;;;0.63;100.00;94089.88;4993174;28;20561;-73
2023/12/21 01:38:41;;;;;;;0.60;0.60;;;;;;;0.52;100.00;94086.50;4993336;28;20221;-74
2023/12/21 01:41:08;;;;;;;1.85;1.75;;;;;;;0.78;100.00;94080.97;5000306;28;20271;-74
2023/12/21 01:43:36;;;;;;;0.32;0.32;;;;;;;0.86;100.00;94077.69;4998703;28;20304;-71
2023/12/21 01:46:03;;;;;;;1.40;1.30;;;;;;;0.84;100.00;94082.50;4993262;28;20582;-73
2023/12/21 01:48:32;;;;;;;0.40;0.40;;;;;;;0.70;100.00;94077.81;4992580;28;20280;-74
2023/12/21 01:50:59;;;;;;;2.83;2.05;;;;;;;0.64;100.00;94067.50;4992654;28;20233;-75
2023/12/21 01:53:26;;;;;;;0.65;0.65;;;;;;;0.78;100.00;94075.66;4995408;28;20655;-72
2023/12/21 01:55:54;;;;;;;0.38;0.38;;;;;;;0.77;100.00;94068.72;5012498;28;20228;-73
2023/12/21 01:58:21;;;;;;;0.60;0.60;;;;;;;0.91;100.00;94070.47;5008874;28;20320;-73
2023/12/21 02:00:49;;;;;;;0.30;0.30;;;;;;;1.11;100.00;94074.00;5002203;28;20213;-73
2023/12/21 02:03:17;;;;;;;0.43;0.43;;;;;;;1.13;100.00;94064.63;5004877;28;20217;-74
2023/12/21 02:05:44;;;;;;;2.78;1.23;;;;;;;0.87;100.00;94050.75;5012094;28;20216;-74
2023/12/21 02:08:10;;;;;;;0.65;0.65;;;;;;;0.90;100.00;94060.06;5011746;28;20739;-74
2023/12/21 02:10:39;;;;;;;0.57;0.57;;;;;;;1.00;100.00;94058.09;5012201;28;20233;-73
2023/12/21 02:13:06;;;;;;;0.30;0.30;;;;;;;0.94;100.00;94063.78;4994601;28;20640;-72
2023/12/21 02:15:33;;;;;;;1.75;1.67;;;;;;;1.08;100.00;94063.91;4992255;28;20209;-74
2023/12/21 02:18:03;;;;;;;0.52;0.52;;;;;;;0.95;100.00;94065.38;4992303;28;20213;-73
2023/12/21 02:20:30;;;;;;;0.40;0.40;;;;;;;0.98;100.00;94072.78;5004010;28;20212;-74
2023/12/21 02:23:00;;;;;;;0.30;0.30;;;;;;;1.06;100.00;94072.97;5006635;28;20305;-73
2023/12/21 02:25:28;;;;;;;1.00;1.00;;;;;;;1.11;100.00;94066.78;4991822;28;20288;-75
2023/12/21 02:27:55;;;;;;;0.45;0.45;;;;;;;1.15;100.00;94075.81;4992523;28;20210;-73
2023/12/21 02:30:22;;;;;;;2.05;1.88;;;;;;;1.22;100.00;94070.16;4991783;28;20263;-73
2023/12/21 02:32:49;;;;;;;0.77;0.77;;;;;;;1.29;100.00;94066.06;5011699;28;20209;-73
2023/12/21 02:35:16;;;;;;;0.55;0.55;;;;;;;1.38;100.00;94075.03;4998854;28;20566;-73
2023/12/21 02:37:43;;;;;;;0.20;0.20;;;;;;;1.57;100.00;94071.63;4992077;28;20213;-73
2023/12/21 02:40:12;;;;;;;0.40;0.40;;;;;;;1.59;100.00;94070.28;4993417;28;20212;-74
2023/12/21 02:42:40;;;;;;;0.52;0.52;;;;;;;1.64;100.00;94077.44;5011467;28;20213;-73
2023/12/21 02:45:07;;;;;;;3.10;2.67;;;;;;;1.43;100.00;94072.31;5011184;28;20212;-73
2023/12/21 02:47:34;;;;;;;2.42;2.17;;;;;;;1.59;100.00;94072.16;5011840;28;20205;-73
2023/12/21 02:50:02;;;;;;;11.88;10.13;;;;;;;1.70;100.00;94081.63;4997601;28;20213;-73
2023/12/21 02:52:28;;;;;;;1.23;1.20;;;;;;;1.76;100.00;94091.16;4991745;28;20651;-73
2023/12/21 02:54:55;;;;;;;7.22;3.35;;;;;;;1.71;100.00;94077.88;5006152;28;20209;-73
2023/12/21 02:57:22;;;;;;;0.35;0.35;;;;;;;1.80;100.00;94078.81;5003929;28;20623;-73
2023/12/21 02:59:50;;;;;;;0.20;0.20;;;;;;;1.82;100.00;94075.88;5005393;28;20607;-74
2023/12/21 03:02:17;;;;;;;0.55;0.55;;;;;;;1.91;100.00;94077.63;5003373;28;20209;-74
2023/12/21 03:04:44;;;;;;;0.82;0.82;;;;;;;1.92;100.00;94079.19;4998332;28;20210;-75
2023/12/21 03:07:11;;;;;;;2.10;1.40;;;;;;;1.89;100.00;94071.78;5002913;28;20229;-73
2023/12/21 03:09:37;;;;;;;0.40;0.40;;;;;;;1.77;100.00;94071.41;4991811;28;20568;-75
2023/12/21 03:12:05;;;;;;;0.50;0.50;;;;;;;1.76;100.00;94072.47;4999919;28;20299;-76
2023/12/21 03:14:32;;;;;;;5.80;0.90;;;;;;;1.90;100.00;94075.25;5009185;28;20219;-74
2023/12/21 03:17:00;;;;;;;0.38;0.38;;;;;;;1.97;100.00;94078.34;4991555;28;20213;-76
2023/12/21 03:19:27;;;;;;;5.47;1.80;;;;;;;2.04;100.00;94086.81;4991821;28;20226;-75
2023/12/21 03:21:54;;;;;;;3.63;1.40;;;;;;;1.95;100.00;94089.31;5000770;28;20209;-74
2023/12/21 03:24:20;;;;;;;9.02;4.00;;;;;;;2.23;100.00;94084.13;5008834;28;20278;-75
2023/12/21 03:26:47;;;;;;;0.90;0.90;;;;;;;2.47;100.00;94079.50;4991497;28;20217;-75
2023/12/21 03:29:15;;;;;;;2.55;1.63;;;;;;;2.90;100.00;94071.34;5007697;28;20591;-74
2023/12/21 03:31:42;;;;;;;2.63;2.30;;;;;;;3.08;100.00;94078.53;5001481;28;20589;-71
2023/12/21 03:34:10;;;;;;;0.20;0.20;;;;;;;3.20;100.00;94081.53;4991971;28;20734;-74
2023/12/21 03:36:37;;;;;;;3.63;1.17;;;;;;;3.30;100.00;94080.53;5003960;28;20213;-74
2023/12/21 03:39:04;;;;;;;2.40;2.10;;;;;;;3.37;100.00;94081.75;5006804;28;20217;-74
2023/12/21 03:41:30;;;;;;;0.28;0.28;;;;;;;3.39;100.00;94076.91;4991225;28;20208;-75
2023/12/21 03:43:59;;;;;;;1.67;0.70;;;;;;;3.32;100.00;94073.81;4991127;28;20213;-75
2023/12/21 03:46:26;;;;;;;0.93;0.65;;;;;;;3.25;100.00;94083.31;4991046;28;20713;-74
2023/12/21 03:48:52;;;;;;;12.00;4.32;;;;;;;3.20;100.00;94086.88;5004621;28;20661;-74
2023/12/21 03:51:20;;;;;;;4.68;2.55;;;;;;;3.23;100.00;94067.56;4991242;28;20233;-75
2023/12/21 03:53:47;;;;;;;1.25;1.08;;;;;;;3.25;100.00;94078.78;4996885;28;20209;-77
2023/12/21 03:56:14;;;;;;;1.13;1.05;;;;;;;3.23;100.00;94075.59;5013080;28;20259;-74
2023/12/21 03:58:45;;;;;;;4.20;1.90;;;;;;;3.21;100.00;94072.41;4996516;28;20213;-74
2023/12/21 04:01:12;;;;;;;7.50;4.55;;;;;;;3.30;100.00;94097.41;4993670;28;20193;-76
2023/12/21 04:03:39;;;;;;;0.20;0.20;;;;;;;3.37;100.00;94087.09;5001454;28;20223;-75
2023/12/21 04:06:07;;;;;;;0.60;0.47;;;;;;;3.46;100.00;94090.69;5005337;28;20223;-73
2023/12/21 04:08:35;;;;;;;2.13;1.92;;;;;;;3.56;100.00;94084.34;5003423;28;20255;-75
2023/12/21 04:11:02;;;;;;;0.75;0.75;;;;;;;3.54;100.00;94087.34;5004789;28;20241;-75
2023/12/21 04:13:29;;;;;;;0.68;0.68;;;;;;;3.68;100.00;94081.97;5009839;28;20554;-76
2023/12/21 04:15:55;;;;;;;1.00;1.00;;;;;;;4.08;100.00;94085.72;5006111;28;20205;-75
2023/12/21 04:18:22;;;;;;;1.75;0.93;;;;;;;4.05;100.00;94086.31;5010114;28;20210;-75
2023/12/21 04:20:49;;;;;;;0.20;0.20;;;;;;;3.86;100.00;94077.59;5003750;28;20237;-75
2023/12/21 04:23:16;;;;;;;1.25;0.50;;;;;;;3.64;100.00;94080.19;5009332;28;20666;-75
2023/12/21 04:25:44;;;;;;;0.55;0.50;;;;;;;3.53;100.00;94074.25;5006668;28;20635;-72
2023/12/21 04:28:12;;;;;;;0.20;0.20;;;;;;;3.49;100.00;94079.38;5003148;28;20198;-76
2023/12/21 04:30:38;;;;;;;2.83;1.33;;;;;;;3.45;100.00;94088.28;5002745;28;20206;-77
2023/12/21 04:33:06;;;;;;;1.52;1.42;;;;;;;3.40;100.00;94083.06;5005889;28;20217;-75
2023/12/21 04:35:32;;;;;;;1.42;0.88;;;;;;;3.39;100.00;94074.22;5004826;28;20909;-74
2023/12/21 04:37:59;;;;;;;1.98;1.38;;;;;;;3.41;100.00;94073.94;5004039;28;20570;-75
2023/12/21 04:40:26;;;;;;;0.20;0.20;;;;;;;3.58;100.00;94092.88;5008578;28;20209;-75
2023/12/21 04:42:55;;;;;;;1.13;0.90;;;;;;;3.61;100.00;94091.47;5008352;28;20221;-74
2023/12/21 04:45:22;;;;;;;2.78;1.70;;;;;;;3.51;100.00;94103.97;5008201;28;20253;-76
2023/12/21 04:47:49;;;;;;;3.05;0.90;;;;;;;3.44;100.00;94089.38;5006243;28;20205;-74
2023/12/21 04:50:16;;;;;;;0.82;0.82;;;;;;;3.47;100.00;94086.91;5010786;28;20201;-73
2023/12/21 04:52:43;;;;;;;0.30;0.30;;;;;;;3.52;100.00;94094.88;5003354;28;20224;-76
2023/12/21 04:55:10;;;;;;;0.85;0.85;;;;;;;3.55;100.00;94098.84;5006485;28;20549;-76
2023/12/21 04:57:37;;;;;;;0.57;0.57;;;;;;;3.52;100.00;94088.72;5009823;28;20213;-76
2023/12/21 05:00:10;;;;;;;1.50;1.40;;;;;;;3.52;100.00;94094.88;5009081;28;20202;-75
2023/12/21 05:02:37;;;;;;;1.20;1.15;;;;;;;3.68;100.00;94086.53;5006470;28;20220;-75
2023/12/21 05:05:04;;;;;;;0.20;0.20;;;;;;;3.69;100.00;94088.13;5001848;28;20197;-75
2023/12/21 05:07:31;;;;;;;0.50;0.50;;;;;;;3.69;100.00;94099.63;5013391;28;20236;-76
2023/12/21 05:10:00;;;;;;;1.05;0.85;;;;;;;3.62;100.00;94098.44;5003815;28;20200;-74
2023/12/21 05:12:27;;;;;;;5.43;2.03;;;;;;;3.62;100.00;94101.09;5008747;28;20209;-74
2023/12/21 05:14:54;;;;;;;0.57;0.57;;;;;;;3.70;100.00;94103.09;5008592;28;20612;-76
2023/12/21 05:17:24;;;;;;;0.20;0.20;;;;;;;3.69;100.00;94104.22;5013391;28;20228;-76
2023/12/21 05:19:51;;;;;;;0.20;0.20;;;;;;;3.67;100.00;94107.19;5014178;28;20328;-77
2023/12/21 05:22:18;;;;;;;0.30;0.30;;;;;;;3.56;100.00;94105.75;4999645;28;20229;-75
2023/12/21 05:24:44;;;;;;;0.25;0.25;;;;;;;3.58;100.00;94116.97;4999742;28;20211;-76
2023/12/21 05:27:11;;;;;;;0.30;0.30;;;;;;;3.65;100.00;94109.34;5013537;28;20205;-76
2023/12/21 05:29:38;;;;;;;0.73;0.73;;;;;;;3.52;100.00;94105.56;5013010;28;20217;-74
2023/12/21 05:32:07;;;;;;;2.05;1.75;;;;;;;3.52;100.00;94115.50;5000922;28;20201;-76
2023/12/21 05:34:35;;;;;;;0.70;0.65;;;;;;;3.57;100.00;94102.78;4996312;28;20221;-75
2023/12/21 05:37:02;;;;;;;0.17;0.17;;;;;;;3.68;100.00;94111.44;5009115;28;20254;-75
2023/12/21 05:39:31;;;;;;;0.20;0.20;;;;;;;3.62;100.00;94106.47;5007726;28;20647;-75
2023/12/21 05:41:58;;;;;;;1.30;1.20;;;;;;;3.60;99.70;94101.41;4997609;28;20229;-75
2023/12/21 05:44:26;;;;;;;0.77;0.77;;;;;;;3.60;99.42;94100.59;5003208;28;20283;-74
2023/12/21 05:46:53;;;;;;;0.30;0.30;;;;;;;3.60;99.32;94106.75;4999034;28;20580;-74
2023/12/21 05:49:20;;;;;;;2.47;1.77;;;;;;;3.48;99.21;94093.06;4994470;28;20221;-74
2023/12/21 05:51:49;;;;;;;1.05;0.95;;;;;;;3.48;99.76;94093.84;4993834;28;20210;-76
2023/12/21 05:54:16;;;;;;;0.30;0.30;;;;;;;3.51;99.60;94087.91;4993943;28;20217;-76
2023/12/21 05:56:43;;;;;;;1.15;0.75;;;;;;;3.45;99.35;94091.75;5009495;28;20302;-75
2023/12/21 05:59:11;;;;;;;0.30;0.30;;;;;;;3.48;98.72;94088.50;5013405;28;20213;-75
2023/12/21 06:01:38;;;;;;;0.47;0.47;;;;;;;3.44;99.06;94084.81;5012297;28;20315;-76
2023/12/21 06:04:05;;;;;;;0.22;0.22;;;;;;;3.44;99.34;94082.16;5013941;28;20205;-75
2023/12/21 06:06:32;;;;;;;1.02;1.02;;;;;;;3.51;99.05;94098.63;4996289;28;20248;-74
2023/12/21 06:09:00;;;;;;;0.68;0.68;;;;;;;3.30;99.46;94053.78;5003104;28;20250;-75
2023/12/21 06:11:28;;;;;;;0.30;0.30;;;;;;;3.53;99.43;94101.81;4999557;28;20221;-75
2023/12/21 06:13:55;;;;;;;0.45;0.38;;;;;;;3.60;98.95;94101.41;5013513;28;20209;-76
2023/12/21 06:16:22;;;;;;;1.20;1.20;;;;;;;3.56;99.24;94095.84;5013040;28;20301;-76
2023/12/21 06:18:50;;;;;;;0.93;0.40;;;;;;;3.51;99.08;94087.91;5012880;28;20216;-75
2023/12/21 06:21:17;;;;;;;0.20;0.20;;;;;;;3.61;98.92;94091.47;5006268;28;20205;-76
2023/12/21 06:23:44;;;;;;;0.25;0.25;;;;;;;3.49;99.33;94087.41;5010300;28;20200;-75
2023/12/21 06:26:12;;;;;;;0.65;0.65;;;;;;;3.52;99.11;94094.88;5001425;28;20690;-75
2023/12/21 06:28:39;;;;;;;0.20;0.20;;;;;;;3.50;99.37;94097.03;5007226;28;20229;-75
2023/12/21 06:31:06;;;;;;;0.47;0.47;;;;;;;3.46;98.96;94085.31;5001393;28;20197;-76
2023/12/21 06:33:34;;;;;;;0.22;0.22;;;;;;;3.49;98.71;94100.81;5004378;28;20224;-75
2023/12/21 06:36:01;;;;;;;0.50;0.50;;;;;;;3.48;98.32;94099.22;5002639;28;20209;-74
2023/12/21 06:38:28;;;;;;;0.28;0.28;;;;;;;3.52;98.06;94100.22;4996694;28;20202;-76
2023/12/21 06:40:55;;;;;;;0.40;0.40;;;;;;;3.51;97.96;94097.84;4993360;28;20237;-74
2023/12/21 06:43:24;;;;;;;0.75;0.75;;;;;;;3.55;98.00;94101.50;5005784;28;20273;-75
2023/12/21 06:45:51;;;;;;;2.13;1.92;;;;;;;3.60;97.48;94097.94;5007878;28;20217;-74
2023/12/21 06:48:21;;;;;;;0.35;0.35;;;;;;;3.60;97.45;94106.75;4993609;28;20241;-75
2023/12/21 06:50:48;;;;;;;0.20;0.20;;;;;;;3.79;97.27;94104.78;5000248;28;20201;-75
2023/12/21 06:53:17;;;;;;;0.20;0.20;;;;;;;3.88;96.85;94115.59;5001662;28;20623;-75
2023/12/21 06:55:44;;;;;;;0.70;0.47;;;;;;;3.81;96.98;94115.22;5009588;28;20217;-75
2023/12/21 06:58:12;;;;;;;0.75;0.75;;;;;;;3.78;96.70;94110.44;5003798;28;20216;-76
2023/12/21 07:00:40;;;;;;;1.17;0.50;;;;;;;3.69;96.45;94098.84;5014405;28;20209;-75
2023/12/21 07:03:08;;;;;;;0.40;0.40;;;;;;;3.77;96.43;94108.84;5008177;28;20226;-74
2023/12/21 07:05:36;;;;;;;1.95;1.42;;;;;;;3.73;95.95;94100.63;5018308;28;20554;-73
2023/12/21 07:08:03;;;;;;;2.50;1.95;;;;;;;3.79;96.15;94098.63;5021023;28;20790;-76
2023/12/21 07:10:31;;;;;;;1.30;1.00;;;;;;;3.80;96.43;94102.91;5022476;28;20228;-73
2023/12/21 07:12:58;;;;;;;1.90;1.75;;;;;;;3.80;96.06;94113.63;5022060;28;20209;-76
2023/12/21 07:15:25;;;;;;;1.95;0.93;;;;;;;3.92;95.44;94114.72;5016796;28;20690;-75
2023/12/21 07:17:54;;;;;;;0.75;0.75;;;;;;;3.95;95.47;94113.31;5011044;28;20673;-75
2023/12/21 07:20:24;;;;;;;0.55;0.55;;;;;;;4.11;94.71;94117.25;5013392;28;20693;-75
2023/12/21 07:22:51;;;;;;;0.22;0.22;;;;;;;4.06;94.66;94114.72;5014223;28;20566;-77
2023/12/21 07:25:18;;;;;;;0.30;0.30;;;;;;;4.09;94.70;94114.13;5011836;28;20209;-76
2023/12/21 07:27:45;;;;;;;0.45;0.45;;;;;;;4.11;94.23;94113.78;4999088;28;20736;-74
2023/12/21 07:30:13;;;;;;;0.60;0.60;;;;;;;4.13;94.38;94106.25;5019634;28;20205;-76
2023/12/21 07:32:40;;;;;;;0.35;0.35;;;;;;;3.99;94.55;94103.59;4997527;28;20620;-75
2023/12/21 07:35:09;;;;;;;2.33;2.17;;;;;;;4.12;93.40;94108.13;5007308;28;20302;-77
2023/12/21 07:37:36;;;;;;;0.32;0.32;;;;;;;4.17;93.81;94110.72;4997997;28;20603;-77
2023/12/21 07:40:03;;;;;;;0.40;0.40;;;;;;;4.24;92.79;94111.09;5001954;28;20221;-76
2023/12/21 07:42:30;;;;;;;0.20;0.20;;;;;;;4.31;93.55;94115.25;5011050;28;20225;-76
2023/12/21 07:44:57;;;;;;;0.30;0.30;;;;;;;4.35;92.01;94121.63;5009575;28;20395;-76
2023/12/21 07:47:24;;;;;;;0.30;0.30;;;;;;;4.17;91.61;94132.16;5016470;28;20216;-75
2023/12/21 07:49:52;;;;;;;0.40;0.40;;;;;;;4.19;91.46;94124.63;5023137;28;20216;-78
2023/12/21 07:52:20;;;;;;;0.35;0.35;;;;;;;4.22;90.82;94131.28;5035722;28;20232;-76
2023/12/21 07:54:47;;;;;;;0.45;0.45;;;;;;;4.35;89.90;94126.97;5020617;28;20219;-76
2023/12/21 07:57:14;;;;;;;0.77;0.77;;;;;;;4.40;89.78;94130.34;5014644;28;20211;-77
2023/12/21 07:59:44;;;;;;;1.17;1.02;;;;;;;4.61;89.94;94128.00;5017663;28;20212;-76
2023/12/21 08:02:11;;;;;;;0.43;0.43;;;;;;;4.60;89.65;94121.06;5035026;28;20258;-77
2023/12/21 08:04:38;;;;;;;0.90;0.57;;;;;;;4.49;89.75;94130.44;5024256;28;20264;-74
2023/12/21 08:07:10;;;;;;;0.20;0.20;;;;;;;4.48;89.88;94124.28;4993605;28;20198;-76
2023/12/21 08:09:39;;;;;;;0.35;0.30;;;;;;;4.46;90.30;94129.13;5021452;28;20209;-76
2023/12/21 08:12:06;;;;;;;0.32;0.30;;;;;;;4.50;89.22;94130.13;5033417;28;20208;-75
2023/12/21 08:14:35;;;;;;;1.63;0.40;;;;;;;4.39;89.81;94138.66;5007396;28;20574;-75
2023/12/21 08:17:06;;;;;;;1.75;1.60;;;;;;;4.35;89.22;94140.38;5005930;28;20213;-73
2023/12/21 08:19:34;;;;;;;0.32;0.32;;;;;;;4.48;89.39;94136.88;5022812;28;20197;-74
2023/12/21 08:22:01;;;;;;;2.13;1.80;;;;;;;4.59;89.09;94149.78;5017597;28;20210;-75
2023/12/21 08:24:28;;;;;;;0.25;0.25;;;;;;;4.46;88.40;94149.81;5002407;28;20696;-76
2023/12/21 08:26:57;;;;;;;0.50;0.50;;;;;;;4.58;87.70;94128.63;5014364;28;20213;-77
2023/12/21 08:29:24;;;;;;;0.20;0.20;;;;;;;4.93;87.48;94143.09;5014133;28;20252;-77
2023/12/21 08:31:51;;;;;;;0.40;0.40;;;;;;;4.74;86.00;94135.22;5016769;28;20565;-78
2023/12/21 08:34:18;;;;;;;0.50;0.50;;;;;;;4.92;84.70;94136.94;5014558;28;20216;-77
2023/12/21 08:36:44;;;;;;;0.22;0.22;;;;;;;5.11;85.56;94144.81;5010836;28;20201;-76
2023/12/21 08:39:11;;;;;;;0.38;0.38;;;;;;;5.01;84.85;94142.38;5004076;28;20217;-77
2023/12/21 08:41:38;;;;;;;0.32;0.32;;;;;;;4.86;85.76;94132.81;5012816;28;20205;-77
2023/12/21 08:44:07;;;;;;;0.30;0.30;;;;;;;4.83;86.24;94122.66;5013294;28;20240;-77
2023/12/21 08:46:34;;;;;;;0.70;0.35;;;;;;;5.12;85.53;94126.84;5012747;28;20220;-78
2023/12/21 08:49:01;;;;;;;0.30;0.30;;;;;;;5.40;84.78;94114.84;5007835;28;20298;-78
2023/12/21 08:51:28;;;;;;;2.83;0.40;;;;;;;5.29;84.78;94117.00;5020149;28;20660;-77
2023/12/21 08:53:55;;;;;;;0.40;0.40;;;;;;;5.34;84.14;94122.22;5013817;28;20243;-78
2023/12/21 08:56:22;;;;;;;0.20;0.20;;;;;;;5.28;83.62;94117.31;5013427;28;20219;-76
2023/12/21 08:58:50;;;;;;;1.65;0.73;;;;;;;5.40;82.89;94098.75;5012844;28;20263;-77
2023/12/21 09:01:19;;;;;;;0.55;0.45;;;;;;;5.38;83.06;94106.31;5020507;28;20652;-77
2023/12/21 09:03:46;;;;;;;0.95;0.95;;;;;;;5.70;82.11;94106.00;5013351;28;20244;-78
2023/12/21 09:06:12;;;;;;;0.20;0.20;;;;;;;5.67;81.82;94103.94;5013478;28;20216;-79
2023/12/21 09:08:39;;;;;;;0.65;0.65;;;;;;;5.68;81.46;94089.41;5006220;28;20233;-76
2023/12/21 09:11:08;;;;;;;0.32;0.32;;;;;;;5.64;81.07;94083.06;5013674;28;20537;-77
2023/12/21 09:13:34;;;;;;;0.70;0.70;;;;;;;5.77;80.74;94086.72;5012787;28;20216;-77
2023/12/21 09:16:01;;;;;;;1.65;0.47;;;;;;;5.51;81.82;94086.63;5012465;28;20212;-79
2023/12/21 09:18:30;;;;;;;0.82;0.77;;;;;;;5.33;82.24;94077.69;5003700;28;20229;-78
2023/12/21 09:20:57;;;;;;;0.30;0.30;;;;;;;5.75;81.46;94077.41;5010718;28;20641;-78
2023/12/21 09:23:24;;;;;;;0.20;0.20;;;;;;;5.72;81.39;94079.63;5013740;28;20229;-77
2023/12/21 09:25:51;;;;;;;1.27;0.40;;;;;;;5.61;81.26;94072.91;5006038;28;20673;-77
2023/12/21 09:28:18;;;;;;;0.68;0.68;;;;;;;5.62;81.03;94074.50;5004632;28;20293;-75
2023/12/21 09:30:45;;;;;;;0.70;0.70;;;;;;;5.66;81.20;94075.47;5003580;28;20209;-76
2023/12/21 09:33:13;;;;;;;0.25;0.25;;;;;;;6.04;80.78;94066.94;5013392;28;20612;-75
2023/12/21 09:35:41;;;;;;;0.30;0.30;;;;;;;6.06;79.53;94067.41;5013714;28;20303;-77
2023/12/21 09:38:09;;;;;;;1.02;0.95;;;;;;;6.23;79.55;94064.75;5013848;28;20550;-78
2023/12/21 09:40:36;;;;;;;2.63;1.10;;;;;;;5.98;78.68;94057.44;5013771;28;20205;-78
2023/12/21 09:43:05;;;;;;;0.40;0.40;;;;;;;5.67;80.72;94054.78;5020875;28;20233;-79
2023/12/21 09:45:33;;;;;;;0.43;0.43;;;;;;;5.88;81.41;94050.44;5009190;28;20212;-79
2023/12/21 09:48:00;;;;;;;0.65;0.60;;;;;;;5.45;81.03;94042.22;5002277;28;20232;-79
2023/12/21 09:50:29;;;;;;;0.57;0.57;;;;;;;5.62;80.98;94044.94;4997054;28;20216;-78
2023/12/21 09:52:59;;;;;;;1.02;1.02;;;;;;;5.64;80.69;94034.69;5013012;28;20240;-76
2023/12/21 09:55:30;;;;;;;0.20;0.20;;;;;;;5.76;81.51;94026.03;5012523;28;20662;-76
2023/12/21 09:57:58;;;;;;;0.85;0.70;;;;;;;5.92;80.19;94032.59;5013371;28;20212;-80
2023/12/21 10:00:25;;;;;;;0.60;0.60;;;;;;;5.92;80.52;94029.09;5012570;28;20247;-78
2023/12/21 10:02:53;;;;;;;0.28;0.28;;;;;;;5.88;81.11;94023.56;4996731;28;20225;-78
2023/12/21 10:05:20;;;;;;;1.63;1.50;;;;;;;5.81;80.33;94017.03;4999605;28;20213;-76
2023/12/21 10:07:47;;;;;;;0.40;0.40;;;;;;;5.96;81.51;94013.94;4999839;28;20241;-78
2023/12/21 10:10:17;;;;;;;1.00;0.60;;;;;;;5.65;80.78;94004.03;4992730;28;20260;-78
2023/12/21 10:12:44;;;;;;;0.70;0.70;;;;;;;5.80;81.88;93999.34;4993350;28;20292;-79
2023/12/21 10:15:11;;;;;;;0.30;0.30;;;;;;;5.96;81.58;93987.88;4993222;28;20297;-78
2023/12/21 10:17:38;;;;;;;0.95;0.95;;;;;;;5.67;81.79;93988.41;4992581;28;20245;-78
2023/12/21 10:20:11;;;;;;;1.58;0.90;;;;;;;5.48;81.85;93981.69;5000669;28;20212;-75
2023/12/21 10:22:39;;;;;;;0.35;0.35;;;;;;;5.62;83.26;93977.78;5011263;28;20284;-77
2023/12/21 10:25:07;;;;;;;1.13;1.05;;;;;;;6.05;82.10;93977.09;5003275;28;20214;-80
2023/12/21 10:27:36;;;;;;;0.47;0.47;;;;;;;6.07;80.85;93973.00;5008333;28;20221;-77
2023/12/21 10:30:04;;;;;;;0.30;0.30;;;;;;;5.94;79.98;93983.91;5003444;28;20554;-78
2023/12/21 10:32:31;;;;;;;0.43;0.40;;;;;;;6.05;80.66;93969.03;4996772;28;20656;-79
2023/12/21 10:34:59;;;;;;;0.30;0.30;;;;;;;6.05;80.01;93956.41;5013488;28;20215;-76
2023/12/21 10:37:26;;;;;;;0.20;0.20;;;;;;;6.02;79.55;93953.53;4995673;28;20264;-77
2023/12/21 10:39:56;;;;;;;0.20;0.20;;;;;;;6.12;80.30;93945.19;4993690;28;20256;-78
2023/12/21 10:42:24;;;;;;;0.20;0.20;;;;;;;6.30;78.65;93954.03;5010584;28;20205;-78
2023/12/21 10:44:52;;;;;;;0.52;0.50;;;;;;;6.51;78.00;93936.16;5014287;28;20240;-76
2023/12/21 10:47:21;;;;;;;0.20;0.20;;;;;;;6.61;78.80;93932.31;5009334;28;20634;-75
2023/12/21 10:49:51;;;;;;;1.10;0.93;;;;;;;6.54;77.92;93937.41;4992315;28;20272;-77
2023/12/21 10:52:19;;;;;;;3.03;0.73;;;;;;;6.47;78.69;93931.72;5005784;28;20312;-78
2023/12/21 10:54:48;;;;;;;0.20;0.20;;;;;;;6.42;78.90;93932.69;5006357;28;20228;-79
2023/12/21 10:57:16;;;;;;;1.40;0.63;;;;;;;6.50;79.22;93915.72;4999959;28;20201;-79
2023/12/21 10:59:44;;;;;;;0.60;0.60;;;;;;;6.62;79.35;93907.00;5003308;28;20234;-78
2023/12/21 11:02:14;;;;;;;0.30;0.30;;;;;;;6.62;78.38;93896.22;5008139;28;20244;-77
2023/12/21 11:04:42;;;;;;;0.40;0.40;;;;;;;6.56;77.68;93897.53;5010577;28;20232;-77
2023/12/21 11:07:12;;;;;;;0.40;0.40;;;;;;;6.56;78.84;93889.47;5011320;28;20229;-79
2023/12/21 11:09:43;;;;;;;0.38;0.38;;;;;;;6.50;77.14;93882.66;5011016;28;20231;-77
2023/12/21 11:12:10;;;;;;;0.22;0.22;;;;;;;6.75;77.04;93892.56;5011873;28;20236;-76
2023/12/21 11:14:37;;;;;;;0.45;0.45;;;;;;;6.54;76.85;93894.38;5011164;28;20216;-75
2023/12/21 11:17:09;;;;;;;0.20;0.20;;;;;;;6.21;77.79;93902.16;5010824;28;20224;-76
2023/12/21 11:19:39;;;;;;;1.45;1.35;;;;;;;6.07;78.01;93897.72;5006802;28;20258;-75
2023/12/21 11:22:07;;;;;;;0.73;0.73;;;;;;;6.01;79.20;93896.28;4991918;28;20241;-78
2023/12/21 11:24:34;;;;;;;0.30;0.30;;;;;;;6.01;78.08;93882.84;4990729;28;20244;-77
2023/12/21 11:27:01;;;;;;;0.32;0.32;;;;;;;6.15;78.09;93871.19;5003365;28;20254;-76
2023/12/21 11:29:29;;;;;;;0.55;0.55;;;;;;;6.12;76.15;93856.47;5011438;28;20558;-77
2023/12/21 11:31:57;;;;;;;1.17;0.73;;;;;;;6.29;77.29;93869.88;5000452;28;20209;-76
2023/12/21 11:34:34;;;;;;;0.22;0.22;;;;;;;6.37;75.97;93869.06;4992104;28;20567;-75
2023/12/21 11:37:17;;;;;;;0.30;0.30;;;;;;;6.53;76.64;93855.13;4991967;28;20260;-77